createdAt,value
2019-03-28T00:00:10.702Z,22.30
2019-03-28T00:02:40.317Z,22.10
2019-03-28T00:05:10.171Z,20.73
2019-03-28T00:07:39.788Z,22.17
2019-03-28T00:10:09.979Z,20.60
2019-03-28T00:12:40.178Z,22.83
2019-03-28T00:15:10.136Z,22.77
2019-03-28T00:17:39.765Z,22.87
2019-03-28T00:20:10.089Z,21.93
2019-03-28T00:22:49.584Z,20.83
2019-03-28T00:25:19.208Z,22.07
2019-03-28T00:27:48.850Z,22.53
2019-03-28T00:30:19.639Z,23.57
2019-03-28T00:32:49.286Z,23.50
2019-03-28T00:35:18.913Z,23.90
2019-03-28T00:37:48.547Z,23.00
2019-03-28T00:40:18.197Z,22.87
2019-03-28T00:42:47.766Z,23.07
2019-03-28T00:45:17.394Z,23.17
2019-03-28T00:47:47.012Z,24.03
2019-03-28T00:50:16.672Z,25.37
2019-03-28T00:52:46.340Z,24.63
2019-03-28T00:55:15.972Z,23.93
2019-03-28T00:57:45.590Z,23.73
2019-03-28T01:00:15.340Z,23.40
2019-03-28T01:02:44.968Z,23.03
2019-03-28T01:05:15.216Z,22.17
2019-03-28T01:07:44.825Z,22.90
2019-03-28T01:10:14.600Z,23.27
2019-03-28T01:12:44.212Z,23.57
2019-03-28T01:15:13.817Z,24.20
2019-03-28T01:17:43.458Z,24.33
2019-03-28T01:20:13.166Z,23.13
2019-03-28T01:22:42.792Z,25.23
2019-03-28T01:25:12.414Z,24.23
2019-03-28T01:27:42.049Z,23.80
2019-03-28T01:30:11.666Z,24.97
2019-03-28T01:32:41.285Z,23.87
2019-03-28T01:35:12.196Z,23.63
2019-03-28T01:37:41.834Z,23.80
2019-03-28T01:40:11.476Z,23.27
2019-03-28T01:42:41.086Z,24.60
2019-03-28T01:45:10.956Z,25.37
2019-03-28T01:47:40.582Z,24.90
2019-03-28T01:50:10.206Z,26.60
2019-03-28T01:52:39.832Z,26.50
2019-03-28T01:55:09.656Z,27.97
2019-03-28T01:57:39.478Z,24.60
2019-03-28T02:00:10.014Z,26.47
2019-03-28T02:02:39.647Z,26.23
2019-03-28T02:05:09.274Z,27.50
2019-03-28T02:07:38.896Z,26.93
2019-03-28T02:10:08.951Z,26.30
2019-03-28T02:12:38.577Z,27.43
2019-03-28T02:15:09.180Z,27.42
2019-03-28T02:17:38.920Z,28.00
2019-03-28T02:20:10.429Z,27.47
2019-03-28T02:22:40.200Z,29.90
2019-03-28T02:25:10.558Z,28.80
2019-03-28T02:27:40.192Z,28.27
2019-03-28T02:30:10.479Z,27.90
2019-03-28T02:32:40.134Z,29.02
2019-03-28T02:35:09.745Z,27.97
2019-03-28T02:37:39.378Z,29.57
2019-03-28T02:40:09.308Z,30.47
2019-03-28T02:42:39.040Z,30.15
2019-03-28T02:45:09.102Z,29.45
2019-03-28T02:47:38.727Z,30.60
2019-03-28T02:50:08.591Z,30.55
2019-03-28T02:52:38.263Z,27.77
2019-03-28T02:55:08.153Z,30.63
2019-03-28T02:57:41.456Z,30.60
2019-03-28T03:00:09.608Z,29.20
2019-03-28T03:02:39.307Z,30.77
2019-03-28T03:05:09.358Z,29.33
2019-03-28T03:07:38.962Z,30.08
2019-03-28T03:10:08.859Z,30.93
2019-03-28T03:12:38.475Z,30.83
2019-03-28T03:15:08.399Z,30.97
2019-03-28T03:17:38.027Z,28.97
2019-03-28T03:20:08.192Z,29.87
2019-03-28T03:22:37.870Z,30.57
2019-03-28T03:25:07.792Z,29.63
2019-03-28T03:27:37.429Z,32.17
2019-03-28T03:30:07.847Z,31.35
2019-03-28T03:32:37.538Z,31.35
2019-03-28T03:35:07.505Z,33.40
2019-03-28T03:37:37.215Z,31.33
2019-03-28T03:40:08.053Z,30.95
2019-03-28T03:42:37.716Z,31.35
2019-03-28T03:45:09.323Z,31.90
2019-03-28T03:47:39.396Z,32.65
2019-03-28T03:50:09.831Z,31.85
2019-03-28T03:52:39.457Z,29.85
2019-03-28T03:55:09.198Z,33.45
2019-03-28T03:57:38.814Z,30.05
2019-03-28T04:00:08.750Z,31.87
2019-03-28T04:02:38.404Z,32.48
2019-03-28T04:05:08.297Z,32.85
2019-03-28T04:07:37.919Z,32.13
2019-03-28T04:10:07.760Z,33.90
2019-03-28T04:12:37.388Z,33.08
2019-03-28T04:15:07.183Z,33.53
2019-03-28T04:17:36.828Z,33.20
2019-03-28T04:20:06.689Z,33.55
2019-03-28T04:22:37.102Z,36.40
2019-03-28T04:25:07.230Z,37.08
2019-03-28T04:27:36.936Z,38.65
2019-03-28T04:30:06.883Z,34.92
2019-03-28T04:32:37.639Z,36.35
2019-03-28T04:35:07.306Z,38.35
2019-03-28T04:37:36.935Z,36.00
2019-03-28T04:40:07.043Z,37.00
2019-03-28T04:42:36.724Z,35.23
2019-03-28T04:45:06.655Z,38.28
2019-03-28T04:47:36.341Z,36.63
2019-03-28T04:50:06.310Z,35.45
2019-03-28T04:52:35.943Z,36.58
2019-03-28T04:55:05.823Z,36.25
2019-03-28T04:57:35.475Z,38.73
2019-03-28T05:00:05.921Z,39.40
2019-03-28T05:02:35.540Z,37.98
2019-03-28T05:05:05.309Z,40.40
2019-03-28T05:07:34.922Z,36.77
2019-03-28T05:10:04.931Z,37.83
2019-03-28T05:12:34.629Z,38.88
2019-03-28T05:15:04.700Z,38.67
2019-03-28T05:17:34.313Z,37.25
2019-03-28T05:20:04.223Z,39.60
2019-03-28T05:22:33.864Z,37.93
2019-03-28T05:25:03.625Z,37.88
2019-03-28T05:27:33.528Z,40.08
2019-03-28T05:30:06.494Z,37.65
2019-03-28T05:32:34.788Z,39.75
2019-03-28T05:35:04.752Z,38.53
2019-03-28T05:37:34.373Z,41.30
2019-03-28T05:40:04.198Z,37.40
2019-03-28T05:42:33.824Z,42.00
2019-03-28T05:45:03.373Z,40.08
2019-03-28T05:47:33.108Z,38.02
2019-03-28T05:50:02.731Z,40.30
2019-03-28T05:52:32.428Z,36.83
2019-03-28T05:55:05.242Z,38.70
2019-03-28T05:57:33.551Z,46.15
2019-03-28T06:00:03.262Z,40.25
2019-03-28T06:02:33.019Z,39.42
2019-03-28T06:05:02.660Z,38.60
2019-03-28T06:07:32.280Z,38.13
2019-03-28T06:10:01.877Z,41.35
2019-03-28T06:12:31.696Z,41.50
2019-03-28T06:15:01.321Z,40.95
2019-03-28T06:17:30.967Z,36.65
2019-03-28T06:20:00.580Z,37.88
2019-03-28T06:22:30.216Z,38.13
2019-03-28T06:24:59.837Z,37.97
2019-03-28T06:27:29.449Z,37.30
2019-03-28T06:30:01.864Z,38.53
2019-03-28T06:32:42.236Z,36.00
2019-03-28T06:35:01.761Z,39.43
2019-03-28T06:37:32.399Z,37.33
2019-03-28T06:40:02.098Z,37.30
2019-03-28T06:42:31.739Z,36.47
2019-03-28T06:45:03.746Z,37.87
2019-03-28T06:47:32.804Z,37.37
2019-03-28T06:50:02.413Z,38.43
2019-03-28T06:52:32.054Z,38.43
2019-03-28T06:55:01.711Z,40.57
2019-03-28T06:57:31.428Z,38.47
2019-03-28T07:00:01.050Z,41.73
2019-03-28T07:02:30.747Z,41.53
2019-03-28T07:05:00.555Z,40.23
2019-03-28T07:07:30.189Z,41.43
2019-03-28T07:10:02.247Z,40.60
2019-03-28T07:12:31.178Z,40.30
2019-03-28T07:15:00.726Z,40.50
2019-03-28T07:17:30.357Z,38.80
2019-03-28T07:19:59.980Z,39.47
2019-03-28T07:22:29.596Z,39.13
2019-03-28T07:24:59.231Z,39.13
2019-03-28T07:27:28.864Z,37.63
2019-03-28T07:29:58.490Z,39.90
2019-03-28T07:32:28.111Z,38.03
2019-03-28T07:34:57.663Z,38.87
2019-03-28T07:37:28.211Z,37.23
2019-03-28T07:39:58.003Z,37.87
2019-03-28T07:42:27.671Z,37.10
2019-03-28T07:44:58.085Z,37.17
2019-03-28T07:47:27.974Z,37.77
2019-03-28T07:50:00.339Z,38.30
2019-03-28T07:52:30.150Z,37.03
2019-03-28T07:54:59.805Z,37.07
2019-03-28T07:57:29.464Z,36.17
2019-03-28T08:00:04.517Z,37.33
2019-03-28T08:02:30.420Z,35.87
2019-03-28T08:05:01.456Z,36.07
2019-03-28T08:07:44.015Z,33.60
2019-03-28T08:10:02.747Z,33.73
2019-03-28T08:12:32.416Z,34.60
2019-03-28T08:15:02.077Z,33.57
2019-03-28T08:17:31.727Z,32.83
2019-03-28T08:20:01.369Z,30.90
2019-03-28T08:22:31.006Z,30.73
2019-03-28T08:25:00.585Z,30.13
2019-03-28T08:27:30.187Z,29.10
2019-03-28T08:29:59.876Z,29.17
2019-03-28T08:32:29.578Z,28.30
2019-03-28T08:34:59.186Z,29.53
2019-03-28T08:37:28.939Z,27.33
2019-03-28T08:39:58.583Z,28.73
2019-03-28T08:42:28.208Z,26.93
2019-03-28T08:44:57.829Z,28.10
2019-03-28T08:47:27.456Z,26.83
2019-03-28T08:49:58.706Z,29.37
2019-03-28T08:52:28.613Z,27.33
2019-03-28T08:54:58.344Z,26.03
2019-03-28T08:57:27.978Z,24.93
2019-03-28T08:59:57.644Z,25.50
2019-03-28T09:02:27.264Z,23.90
2019-03-28T09:04:56.914Z,22.17
2019-03-28T09:07:26.563Z,22.40
2019-03-28T09:09:56.354Z,21.20
2019-03-28T09:12:25.950Z,20.07
2019-03-28T09:14:55.576Z,20.33
2019-03-28T09:17:25.220Z,20.33
2019-03-28T09:19:54.846Z,19.90
2019-03-28T09:22:24.501Z,19.83
2019-03-28T09:24:54.129Z,18.33
2019-03-28T09:27:23.762Z,18.73
2019-03-28T09:29:53.503Z,14.97
2019-03-28T09:32:23.108Z,14.00
2019-03-28T09:34:53.126Z,15.70
2019-03-28T09:37:22.760Z,16.63
2019-03-28T09:39:52.397Z,17.37
2019-03-28T09:42:22.063Z,13.60
2019-03-28T09:44:51.686Z,16.17
2019-03-28T09:47:21.326Z,15.00
2019-03-28T09:49:50.979Z,14.97
2019-03-28T09:52:20.612Z,13.30
2019-03-28T09:54:50.240Z,12.93
2019-03-28T09:57:19.846Z,13.90
2019-03-28T09:59:49.592Z,12.70
2019-03-28T10:02:19.233Z,13.30
2019-03-28T10:04:48.868Z,11.57
2019-03-28T10:07:18.507Z,13.00
2019-03-28T10:09:48.308Z,11.57
2019-03-28T10:12:18.040Z,12.27
2019-03-28T10:14:47.644Z,12.33
2019-03-28T10:17:17.280Z,13.00
2019-03-28T10:19:46.884Z,12.23
2019-03-28T10:22:16.520Z,12.90
2019-03-28T10:24:46.168Z,11.37
2019-03-28T10:27:18.953Z,10.53
2019-03-28T10:29:47.154Z,10.73
2019-03-28T10:32:16.789Z,11.00
2019-03-28T10:34:46.408Z,13.00
2019-03-28T10:37:16.075Z,12.60
2019-03-28T10:39:45.718Z,12.77
2019-03-28T10:42:15.377Z,12.57
2019-03-28T10:44:45.068Z,10.87
2019-03-28T10:47:14.683Z,11.20
2019-03-28T10:49:44.310Z,11.83
2019-03-28T10:52:13.945Z,11.10
2019-03-28T10:54:43.600Z,11.80
2019-03-28T10:57:23.929Z,11.33
2019-03-28T10:59:44.602Z,10.30
2019-03-28T11:02:14.220Z,9.57
2019-03-28T11:04:43.840Z,9.03
2019-03-28T11:07:13.556Z,11.23
2019-03-28T11:09:43.368Z,10.73
2019-03-28T11:12:13.066Z,11.30
2019-03-28T11:14:46.039Z,11.07
2019-03-28T11:17:14.084Z,10.70
2019-03-28T11:19:43.808Z,13.03
2019-03-28T11:22:13.341Z,10.90
2019-03-28T11:24:46.167Z,11.40
2019-03-28T11:27:14.292Z,12.03
2019-03-28T11:29:44.764Z,12.17
2019-03-28T11:32:14.428Z,13.13
2019-03-28T11:34:44.210Z,14.37
2019-03-28T11:37:25.463Z,14.53
2019-03-28T11:39:45.167Z,12.90
2019-03-28T11:42:14.962Z,14.67
2019-03-28T11:44:44.692Z,15.83
2019-03-28T11:47:14.336Z,14.17
2019-03-28T11:49:43.939Z,14.60
2019-03-28T11:52:13.568Z,13.53
2019-03-28T11:54:43.185Z,15.57
2019-03-28T11:57:15.688Z,15.00
2019-03-28T11:59:44.170Z,14.97
2019-03-28T12:02:20.269Z,14.23
2019-03-28T12:04:45.167Z,13.63
2019-03-28T12:07:14.700Z,13.87
2019-03-28T12:09:44.343Z,13.90
2019-03-28T12:12:13.973Z,14.00
2019-03-28T12:14:43.609Z,12.93
2019-03-28T12:17:13.244Z,13.07
2019-03-28T12:19:42.947Z,13.50
2019-03-28T12:22:12.519Z,13.33
2019-03-28T12:24:42.183Z,11.97
2019-03-28T12:27:11.823Z,11.40
2019-03-28T12:29:41.449Z,10.63
2019-03-28T12:32:14.234Z,9.53
2019-03-28T12:34:42.468Z,11.23
2019-03-28T12:37:12.093Z,11.63
2019-03-28T12:39:41.735Z,12.40
2019-03-28T12:42:11.395Z,11.90
2019-03-28T12:44:41.035Z,12.67
2019-03-28T12:47:10.683Z,11.77
2019-03-28T12:49:40.333Z,12.13
2019-03-28T12:52:10.019Z,10.77
2019-03-28T12:54:39.701Z,11.00
2019-03-28T12:57:09.398Z,11.33
2019-03-28T12:59:39.063Z,10.30
2019-03-28T13:02:08.725Z,12.03
2019-03-28T13:04:38.365Z,11.97
2019-03-28T13:07:08.023Z,12.40
2019-03-28T13:09:37.663Z,13.97
2019-03-28T13:12:07.469Z,13.73
2019-03-28T13:14:37.105Z,12.70
2019-03-28T13:17:06.789Z,12.00
2019-03-28T13:19:36.427Z,11.10
2019-03-28T13:22:06.140Z,10.77
2019-03-28T13:24:35.769Z,11.30
2019-03-28T13:27:05.495Z,10.73
2019-03-28T13:29:35.193Z,8.80
2019-03-28T13:32:04.864Z,8.53
2019-03-28T13:34:34.537Z,10.57
2019-03-28T13:37:04.163Z,10.07
2019-03-28T13:39:33.801Z,9.83
2019-03-28T13:42:03.432Z,9.80
2019-03-28T13:44:33.070Z,9.23
2019-03-28T13:47:02.713Z,8.90
2019-03-28T13:49:32.420Z,9.17
2019-03-28T13:52:02.247Z,9.97
2019-03-28T13:54:31.931Z,10.50
2019-03-28T13:57:01.606Z,10.23
2019-03-28T13:59:34.931Z,10.03
2019-03-28T14:02:02.575Z,9.40
2019-03-28T14:04:32.217Z,9.67
2019-03-28T14:07:01.851Z,8.30
2019-03-28T14:09:31.485Z,8.67
2019-03-28T14:12:01.106Z,8.57
2019-03-28T14:14:30.775Z,7.90
2019-03-28T14:17:00.408Z,7.60
2019-03-28T14:19:30.035Z,7.13
2019-03-28T14:21:59.661Z,5.97
2019-03-28T14:24:29.353Z,5.43
2019-03-28T14:26:59.071Z,4.93
2019-03-28T14:29:30.130Z,5.00
2019-03-28T14:32:00.166Z,4.67
2019-03-28T14:34:30.774Z,5.87
2019-03-28T14:37:00.458Z,5.30
2019-03-28T14:39:30.128Z,5.80
2019-03-28T14:41:59.787Z,6.67
2019-03-28T14:44:29.465Z,6.17
2019-03-28T14:46:59.127Z,7.30
2019-03-28T14:49:29.004Z,5.60
2019-03-28T14:51:58.661Z,5.27
2019-03-28T14:54:28.296Z,5.77
2019-03-28T14:56:58.503Z,7.17
2019-03-28T14:59:32.918Z,7.33
2019-03-28T15:02:00.269Z,7.70
2019-03-28T15:04:29.913Z,7.27
2019-03-28T15:06:59.715Z,8.13
2019-03-28T15:09:29.701Z,8.93
2019-03-28T15:11:59.342Z,8.07
2019-03-28T15:14:29.241Z,7.50
2019-03-28T15:16:58.911Z,7.60
2019-03-28T15:19:28.589Z,6.67
2019-03-28T15:21:58.212Z,7.03
2019-03-28T15:24:27.836Z,7.77
2019-03-28T15:26:57.607Z,7.13
2019-03-28T15:29:27.280Z,6.13
2019-03-28T15:31:56.920Z,7.97
2019-03-28T15:34:26.551Z,8.30
2019-03-28T15:36:56.173Z,8.70
2019-03-28T15:39:25.843Z,7.37
2019-03-28T15:41:55.482Z,7.10
2019-03-28T15:44:25.243Z,7.57
2019-03-28T15:46:54.883Z,6.80
2019-03-28T15:49:24.518Z,6.20
2019-03-28T15:51:54.161Z,7.17
2019-03-28T15:54:23.799Z,6.47
2019-03-28T15:56:53.462Z,6.83
2019-03-28T15:59:23.149Z,7.13
2019-03-28T16:01:52.963Z,6.50
2019-03-28T16:04:24.847Z,5.70
2019-03-28T16:06:53.975Z,5.47
2019-03-28T16:09:23.621Z,4.90
2019-03-28T16:12:02.412Z,4.87
2019-03-28T16:14:24.708Z,4.50
2019-03-28T16:16:55.102Z,4.77
2019-03-28T16:19:25.518Z,4.10
2019-03-28T16:21:55.142Z,4.00
2019-03-28T16:24:24.878Z,4.33
2019-03-28T16:26:54.503Z,4.00
2019-03-28T16:29:24.247Z,4.50
2019-03-28T16:31:53.877Z,3.50
2019-03-28T16:34:23.566Z,3.53
2019-03-28T16:36:53.199Z,3.30
2019-03-28T16:39:22.865Z,3.70
2019-03-28T16:41:52.483Z,3.40
2019-03-28T16:44:22.115Z,3.27
2019-03-28T16:46:51.770Z,3.50
2019-03-28T16:49:21.399Z,3.97
2019-03-28T16:51:51.702Z,3.33
2019-03-28T16:54:21.513Z,2.93
2019-03-28T16:56:51.193Z,3.30
2019-03-28T16:59:20.837Z,3.37
2019-03-28T17:01:50.453Z,2.97
2019-03-28T17:04:21.361Z,3.27
2019-03-28T17:06:52.266Z,3.30
2019-03-28T17:09:23.376Z,3.30
2019-03-28T17:11:52.993Z,3.67
2019-03-28T17:14:22.611Z,3.77
2019-03-28T17:16:52.277Z,3.93
2019-03-28T17:19:22.936Z,4.07
2019-03-28T17:21:52.646Z,3.50
2019-03-28T17:24:22.291Z,3.13
2019-03-28T17:26:51.972Z,3.80
2019-03-28T17:29:21.584Z,4.40
2019-03-28T17:31:51.202Z,4.40
2019-03-28T17:34:33.674Z,5.20
2019-03-28T17:36:52.181Z,5.77
2019-03-28T17:39:21.790Z,5.57
2019-03-28T17:41:51.508Z,6.63
2019-03-28T17:44:21.128Z,6.77
2019-03-28T17:46:50.777Z,6.97
2019-03-28T17:49:20.437Z,6.03
2019-03-28T17:51:50.088Z,6.83
2019-03-28T17:54:19.876Z,7.20
2019-03-28T17:56:49.536Z,8.10
2019-03-28T17:59:19.154Z,8.63
2019-03-28T18:01:48.768Z,8.57
2019-03-28T18:04:22.980Z,9.30
2019-03-28T18:06:49.883Z,8.63
2019-03-28T18:09:19.698Z,9.03
2019-03-28T18:11:49.330Z,8.80
2019-03-28T18:14:19.022Z,8.83
2019-03-28T18:16:48.745Z,9.17
2019-03-28T18:19:18.382Z,8.70
2019-03-28T18:21:48.000Z,8.67
2019-03-28T18:24:17.673Z,9.83
2019-03-28T18:26:47.294Z,11.08
2019-03-28T18:29:19.267Z,10.13
2019-03-28T18:31:50.863Z,10.85
2019-03-28T18:34:19.738Z,9.63
2019-03-28T18:36:49.410Z,9.73
2019-03-28T18:39:19.061Z,10.00
2019-03-28T18:41:48.704Z,9.97
2019-03-28T18:44:18.494Z,10.40
2019-03-28T18:46:48.212Z,9.70
2019-03-28T18:49:17.952Z,10.00
2019-03-28T18:51:47.575Z,9.07
2019-03-28T18:54:20.094Z,9.57
2019-03-28T18:56:48.684Z,9.13
2019-03-28T18:59:18.312Z,10.23
2019-03-28T19:01:47.886Z,11.03
2019-03-28T19:04:17.541Z,10.20
2019-03-28T19:06:47.268Z,11.10
2019-03-28T19:09:16.896Z,11.33
2019-03-28T19:11:46.580Z,11.73
2019-03-28T19:14:16.196Z,9.87
2019-03-28T19:16:48.164Z,10.67
2019-03-28T19:19:17.790Z,10.00
2019-03-28T19:21:47.444Z,9.77
2019-03-28T19:24:17.144Z,9.50
2019-03-28T19:26:46.867Z,9.47
2019-03-28T19:29:16.492Z,8.60
2019-03-28T19:31:46.139Z,8.13
2019-03-28T19:34:15.764Z,7.83
2019-03-28T19:36:46.407Z,7.90
2019-03-28T19:39:20.420Z,7.60
2019-03-28T19:41:50.619Z,9.30
2019-03-28T19:44:20.370Z,13.47
2019-03-28T19:46:50.128Z,25.07
2019-03-28T19:49:19.842Z,76.13
2019-03-28T19:51:49.667Z,9.83
2019-03-28T19:54:19.344Z,8.63
2019-03-28T19:56:49.118Z,8.33
2019-03-28T19:59:19.132Z,7.63
2019-03-28T20:01:48.805Z,7.83
2019-03-28T20:04:18.489Z,7.83
2019-03-28T20:06:48.225Z,8.03
2019-03-28T20:09:18.234Z,8.03
2019-03-28T20:11:48.052Z,8.07
2019-03-28T20:14:17.665Z,8.27
2019-03-28T20:16:47.263Z,7.77
2019-03-28T20:19:17.979Z,7.60
2019-03-28T20:21:47.730Z,7.93
2019-03-28T20:24:17.348Z,6.90
2019-03-28T20:26:47.041Z,7.37
2019-03-28T20:29:16.782Z,7.27
2019-03-28T20:31:46.338Z,6.87
2019-03-28T20:34:16.154Z,6.80
2019-03-28T20:36:45.891Z,6.60
2019-03-28T20:39:15.552Z,6.43
2019-03-28T20:41:45.174Z,7.03
2019-03-28T20:44:14.896Z,6.33
2019-03-28T20:46:44.588Z,7.10
2019-03-28T20:49:14.199Z,6.43
2019-03-28T20:51:43.814Z,6.70
2019-03-28T20:54:13.438Z,6.43
2019-03-28T20:56:43.237Z,6.53
2019-03-28T20:59:13.532Z,6.23
2019-03-28T21:01:43.149Z,6.83
2019-03-28T21:04:12.771Z,6.13
2019-03-28T21:06:42.505Z,6.67
2019-03-28T21:09:12.203Z,7.13
2019-03-28T21:11:41.833Z,7.67
2019-03-28T21:14:11.456Z,6.43
2019-03-28T21:16:41.059Z,7.33
2019-03-28T21:19:10.768Z,6.87
2019-03-28T21:21:40.487Z,7.13
2019-03-28T21:24:10.108Z,7.00
2019-03-28T21:26:40.957Z,7.20
2019-03-28T21:29:11.022Z,7.50
2019-03-28T21:31:49.876Z,7.10
2019-03-28T21:34:12.133Z,6.90
2019-03-28T21:36:41.837Z,7.37
2019-03-28T21:39:11.544Z,7.33
2019-03-28T21:41:41.137Z,6.80
2019-03-28T21:44:10.765Z,7.37
2019-03-28T21:46:40.403Z,7.30
2019-03-28T21:49:10.041Z,8.23
2019-03-28T21:51:39.744Z,8.30
2019-03-28T21:54:09.361Z,7.80
2019-03-28T21:56:41.404Z,7.53
2019-03-28T21:59:10.334Z,7.60
2019-03-28T22:01:39.938Z,7.93
2019-03-28T22:04:09.515Z,7.73
2019-03-28T22:06:43.056Z,8.03
2019-03-28T22:09:10.462Z,7.93
2019-03-28T22:11:40.057Z,8.07
2019-03-28T22:14:09.697Z,8.03
2019-03-28T22:16:39.319Z,7.90
2019-03-28T22:19:08.946Z,7.50
2019-03-28T22:21:38.565Z,8.20
2019-03-28T22:24:08.233Z,7.53
2019-03-28T22:26:37.851Z,8.33
2019-03-28T22:29:07.538Z,7.77
2019-03-28T22:31:37.155Z,8.30
2019-03-28T22:34:07.672Z,7.97
2019-03-28T22:36:37.393Z,8.60
2019-03-28T22:39:08.169Z,9.00
2019-03-28T22:41:37.766Z,8.73
2019-03-28T22:44:07.421Z,9.00
2019-03-28T22:46:39.774Z,9.30
2019-03-28T22:49:08.565Z,8.73
2019-03-28T22:51:38.194Z,8.50
2019-03-28T22:54:07.857Z,9.73
2019-03-28T22:56:37.484Z,8.90
2019-03-28T22:59:07.113Z,9.10
2019-03-28T23:01:36.832Z,9.97
2019-03-28T23:04:06.812Z,9.50
2019-03-28T23:06:36.350Z,9.43
2019-03-28T23:09:07.003Z,9.23
2019-03-28T23:11:36.698Z,9.20
2019-03-28T23:14:06.322Z,9.37
2019-03-28T23:16:35.937Z,9.40
2019-03-28T23:19:06.006Z,9.40
2019-03-28T23:21:35.849Z,9.07
2019-03-28T23:24:05.492Z,9.17
2019-03-28T23:26:35.115Z,9.23
2019-03-28T23:29:04.757Z,9.33
2019-03-28T23:31:34.474Z,9.30
2019-03-28T23:34:04.108Z,9.90
2019-03-28T23:36:33.773Z,9.37
2019-03-28T23:39:04.380Z,9.67
2019-03-28T23:41:33.993Z,9.60
2019-03-28T23:44:03.637Z,10.00
2019-03-28T23:46:33.252Z,10.00
2019-03-28T23:49:02.885Z,10.10
2019-03-28T23:51:32.470Z,11.10
2019-03-28T23:54:02.105Z,10.80
2019-03-28T23:56:31.703Z,10.17
2019-03-28T23:59:01.303Z,10.50
